createdAt,value
2018-03-01T01:11:39.241Z,-6.70
2018-03-01T02:50:36.870Z,-7.70
2018-03-01T04:30:55.196Z,-6.60
2018-03-01T04:36:05.007Z,-6.40
2018-03-01T04:38:33.239Z,-6.30
2018-03-01T04:41:01.454Z,-6.40
2018-03-01T04:43:30.566Z,-6.40
2018-03-01T04:45:59.703Z,-6.40
2018-03-01T04:48:29.510Z,-6.40
2018-03-01T04:50:58.116Z,-6.40
2018-03-01T04:53:26.576Z,-6.40
2018-03-01T04:55:54.906Z,-6.40
2018-03-01T04:58:26.222Z,-6.30
2018-03-01T05:00:54.851Z,-6.40
2018-03-01T05:03:23.331Z,-6.40
2018-03-01T05:05:51.725Z,-6.50
2018-03-01T05:08:22.301Z,-6.50
2018-03-01T05:10:50.531Z,-6.50
2018-03-01T05:13:18.691Z,-6.60
2018-03-01T05:21:51.161Z,-6.60
2018-03-01T05:24:23.951Z,-6.50
2018-03-01T05:26:52.266Z,-6.40
2018-03-01T05:29:20.523Z,-6.30
2018-03-01T05:31:49.533Z,-6.20
2018-03-01T05:34:20.408Z,-6.20
2018-03-01T05:36:50.902Z,-6.20
2018-03-01T05:39:19.113Z,-6.20
2018-03-01T05:41:48.671Z,-6.20
2018-03-01T05:44:20.469Z,-6.30
2018-03-01T05:46:53.874Z,-6.30
2018-03-01T05:49:24.711Z,-6.40
2018-03-01T05:51:57.725Z,-6.40
2018-03-01T05:54:40.403Z,-6.50
2018-03-01T05:57:13.061Z,-6.50
2018-03-01T05:59:41.999Z,-6.50
2018-03-01T06:02:14.176Z,-6.60
2018-03-01T06:04:55.395Z,-6.50
2018-03-01T06:07:34.215Z,-6.40
2018-03-01T06:10:03.534Z,-6.30
2018-03-01T06:12:41.816Z,-6.30
2018-03-01T06:15:12.076Z,-6.40
2018-03-01T06:17:42.348Z,-6.30
2018-03-01T06:20:12.098Z,-6.30
2018-03-01T06:22:41.807Z,-6.30
2018-03-01T06:25:19.634Z,-6.30
2018-03-01T06:27:52.668Z,-6.30
2018-03-01T06:30:22.013Z,-6.40
2018-03-01T06:32:51.173Z,-6.40
2018-03-01T06:35:21.719Z,-6.40
2018-03-01T06:37:51.901Z,-6.30
2018-03-01T06:40:22.380Z,-6.30
2018-03-01T06:42:53.306Z,-6.30
2018-03-01T06:45:22.891Z,-6.20
2018-03-01T06:47:51.864Z,-6.00
2018-03-01T06:50:21.249Z,-5.90
2018-03-01T06:52:49.473Z,-5.80
2018-03-01T06:55:24.829Z,-5.70
2018-03-01T06:57:53.065Z,-5.60
2018-03-01T07:00:22.537Z,-5.60
2018-03-01T07:02:51.429Z,-5.60
2018-03-01T07:05:27.301Z,-5.70
2018-03-01T07:08:00.301Z,-5.70
2018-03-01T07:10:30.403Z,-5.60
2018-03-01T07:12:59.152Z,-5.50
2018-03-01T07:15:29.970Z,-5.70
2018-03-01T07:17:59.174Z,-5.70
2018-03-01T07:20:29.716Z,-5.80
2018-03-01T07:22:58.719Z,-5.70
2018-03-01T07:25:33.561Z,-5.70
2018-03-01T07:28:02.621Z,-5.60
2018-03-01T07:30:32.929Z,-5.40
2018-03-01T07:33:01.219Z,-5.30
2018-03-01T07:35:38.153Z,-5.10
2018-03-01T07:38:11.792Z,-5.10
2018-03-01T07:40:42.238Z,-5.20
2018-03-01T07:43:16.922Z,-5.20
2018-03-01T07:45:47.009Z,-5.10
2018-03-01T07:48:16.206Z,-5.00
2018-03-01T07:50:47.380Z,-4.90
2018-03-01T07:53:15.563Z,-4.90
2018-03-01T07:55:47.150Z,-4.90
2018-03-01T07:58:15.400Z,-4.90
2018-03-01T08:00:46.436Z,-4.70
2018-03-01T08:03:14.666Z,-4.80
2018-03-01T08:05:46.987Z,-4.60
2018-03-01T08:08:15.293Z,-4.70
2018-03-01T08:10:44.747Z,-4.40
2018-03-01T08:13:13.793Z,-4.30
2018-03-01T08:15:44.523Z,-4.20
2018-03-01T08:18:12.736Z,-4.20
2018-03-01T08:20:41.173Z,-4.10
2018-03-01T08:23:15.927Z,-4.10
2018-03-01T08:25:58.486Z,-4.00
2018-03-01T09:38:05.928Z,-2.20
2018-03-01T09:40:37.751Z,-2.20
2018-03-01T09:45:46.275Z,-2.20
2018-03-01T09:50:56.549Z,-2.10
2018-03-01T10:01:31.939Z,-2.10
2018-03-01T10:04:10.530Z,-2.30
2018-03-01T10:06:42.998Z,-2.50
2018-03-01T10:09:17.797Z,-2.50
2018-03-01T10:11:49.460Z,-2.50
2018-03-01T10:14:19.093Z,-2.40
2018-03-01T10:16:49.783Z,-2.40
2018-03-01T10:19:21.327Z,-2.40
2018-03-01T10:21:54.577Z,-2.40
2018-03-01T10:24:29.794Z,-2.20
2018-03-01T10:50:59.620Z,-1.30
2018-03-01T10:53:29.689Z,-1.20
2018-03-01T10:55:58.777Z,-1.20
2018-03-01T10:58:32.083Z,-1.30
2018-03-01T11:01:01.928Z,-1.40
2018-03-01T11:03:33.493Z,-1.40
2018-03-01T11:06:03.251Z,-1.60
2018-03-01T11:08:32.242Z,-1.60
2018-03-01T11:11:05.842Z,-1.60
2018-03-01T11:13:35.010Z,-1.70
2018-03-01T11:16:04.414Z,-1.80
2018-03-01T11:18:33.568Z,-1.90
2018-03-01T11:23:45.590Z,-1.80
2018-03-01T11:26:14.042Z,-1.80
2018-03-01T11:28:43.058Z,-1.70
2018-03-01T11:31:11.834Z,-1.70
2018-03-01T11:33:47.473Z,-1.70
2018-03-01T11:36:20.146Z,-1.80
2018-03-01T11:38:54.570Z,-1.70
2018-03-01T11:43:56.029Z,-1.50
2018-03-01T11:46:26.254Z,-1.50
2018-03-01T11:51:32.743Z,-1.30
2018-03-01T11:56:38.015Z,-1.20
2018-03-01T11:59:07.773Z,-1.00
2018-03-01T12:01:36.053Z,-1.00
2018-03-01T12:04:24.547Z,-0.90
2018-03-01T12:06:52.722Z,-0.90
2018-03-01T12:09:23.764Z,-0.90
2018-03-01T12:11:52.879Z,-0.90
2018-03-01T12:14:24.716Z,-1.00
2018-03-01T12:16:52.953Z,-0.90
2018-03-01T12:19:21.274Z,-0.70
2018-03-01T12:21:49.457Z,-0.50
2018-03-01T12:24:31.903Z,-0.20
2018-03-01T12:27:12.640Z,0.00
2018-03-01T12:29:40.799Z,0.10
2018-03-01T12:32:25.137Z,0.10
2018-03-01T12:34:53.356Z,0.30
2018-03-01T12:37:22.434Z,0.40
2018-03-01T12:39:50.863Z,0.50
2018-03-01T12:42:19.305Z,0.50
2018-03-01T12:44:48.560Z,0.80
2018-03-01T12:47:17.737Z,1.10
2018-03-01T12:49:47.366Z,1.20
2018-03-01T12:52:15.540Z,1.00
2018-03-01T12:54:43.881Z,1.10
2018-03-01T12:57:12.139Z,1.10
2018-03-01T12:59:41.666Z,0.90
2018-03-01T13:02:09.859Z,0.90
2018-03-01T13:04:47.225Z,1.20
2018-03-01T13:07:15.471Z,1.50
2018-03-01T13:09:45.731Z,1.70
2018-03-01T13:12:17.187Z,1.70
2018-03-01T13:14:47.376Z,1.70
2018-03-01T13:17:16.462Z,1.80
2018-03-01T13:19:44.666Z,1.90
2018-03-01T13:22:12.863Z,1.90
2018-03-01T13:25:01.079Z,2.20
2018-03-01T13:27:30.067Z,2.10
2018-03-01T13:30:05.851Z,2.40
2018-03-01T13:32:48.907Z,2.70
2018-03-01T13:35:34.766Z,2.30
2018-03-01T13:38:03.758Z,2.10
2018-03-01T13:40:31.929Z,2.10
2018-03-01T13:43:02.312Z,2.60
2018-03-01T13:48:30.059Z,2.40
2018-03-01T13:59:45.989Z,1.90
2018-03-01T14:02:15.273Z,1.70
2018-03-01T14:04:50.563Z,1.70
2018-03-01T14:07:36.508Z,1.70
2018-03-01T14:10:04.912Z,1.70
2018-03-01T14:12:52.378Z,1.60
2018-03-01T14:15:26.885Z,1.50
2018-03-01T14:18:00.742Z,1.50
2018-03-01T14:23:33.962Z,1.50
2018-03-01T14:28:44.695Z,1.60
2018-03-01T14:31:15.384Z,1.60
2018-03-01T14:33:46.364Z,1.80
2018-03-01T14:36:15.441Z,1.90
2018-03-01T14:38:44.597Z,2.00
2018-03-01T14:41:15.374Z,1.90
2018-03-01T14:43:43.547Z,1.80
2018-03-01T14:46:11.741Z,1.40
2018-03-01T14:48:39.889Z,1.10
2018-03-01T14:51:08.839Z,1.00
2018-03-01T14:53:38.700Z,0.90
2018-03-01T14:56:06.878Z,0.90
2018-03-01T14:58:35.102Z,0.90
2018-03-01T15:01:03.336Z,0.50
2018-03-01T15:03:32.304Z,0.50
2018-03-01T15:06:02.819Z,0.20
2018-03-01T15:08:31.106Z,0.20
2018-03-01T15:11:02.495Z,0.10
2018-03-01T15:13:34.100Z,0.10
2018-03-01T15:16:04.259Z,0.00
2018-03-01T15:18:32.442Z,0.00
2018-03-01T15:21:02.754Z,0.20
2018-03-01T15:23:31.564Z,0.00
2018-03-01T15:26:02.124Z,-0.10
2018-03-01T15:28:31.366Z,-0.20
2018-03-01T15:31:00.492Z,-0.10
2018-03-01T15:33:28.674Z,-0.20
2018-03-01T15:35:58.284Z,-0.40
2018-03-01T15:38:26.453Z,-0.50
2018-03-01T15:40:56.863Z,-0.40
2018-03-01T15:43:25.036Z,-0.30
2018-03-01T15:45:53.966Z,-0.30
2018-03-01T15:48:22.753Z,-0.30
2018-03-01T15:50:53.574Z,-0.20
2018-03-01T15:53:21.757Z,-0.20
2018-03-01T15:55:49.969Z,-0.20
2018-03-01T15:58:18.172Z,-0.30
2018-03-01T16:00:48.570Z,-0.30
2018-03-01T16:03:17.516Z,-0.40
2018-03-01T16:05:48.591Z,-0.40
2018-03-01T16:08:16.754Z,-0.60
2018-03-01T16:10:48.930Z,-0.60
2018-03-01T16:13:17.325Z,-0.60
2018-03-01T16:15:47.167Z,-0.70
2018-03-01T16:18:16.244Z,-0.70
2018-03-01T16:20:47.509Z,-0.80
2018-03-01T16:23:16.562Z,-0.80
2018-03-01T16:25:46.962Z,-1.00
2018-03-01T16:28:15.129Z,-1.10
2018-03-01T16:30:50.625Z,-1.10
2018-03-01T16:33:19.549Z,-1.40
2018-03-01T16:35:50.062Z,-1.40
2018-03-01T16:38:18.222Z,-1.40
2018-03-01T16:40:49.514Z,-1.40
2018-03-01T16:43:18.083Z,-1.40
2018-03-01T16:45:48.160Z,-1.40
2018-03-01T16:48:17.352Z,-1.40
2018-03-01T16:50:50.518Z,-1.40
2018-03-01T16:53:19.636Z,-1.50
2018-03-01T16:55:49.234Z,-1.60
2018-03-01T16:58:17.392Z,-1.60
2018-03-01T17:00:47.505Z,-1.50
2018-03-01T17:03:15.710Z,-1.50
2018-03-01T17:05:45.856Z,-1.50
2018-03-01T17:08:14.088Z,-1.50
2018-03-01T17:10:42.339Z,-1.50
2018-03-01T17:13:10.618Z,-1.60
2018-03-01T17:15:38.907Z,-1.60
2018-03-01T17:18:07.057Z,-1.60
2018-03-01T17:20:37.119Z,-1.50
2018-03-01T17:23:05.286Z,-1.50
2018-03-01T17:25:36.136Z,-1.60
2018-03-01T17:28:04.509Z,-1.60
2018-03-01T17:30:34.480Z,-1.60
2018-03-01T17:33:03.554Z,-1.60
2018-03-01T17:35:32.275Z,-1.70
2018-03-01T17:38:00.732Z,-1.70
2018-03-01T17:40:29.364Z,-1.80
2018-03-01T17:42:57.666Z,-1.80
2018-03-01T17:45:31.567Z,-1.90
2018-03-01T17:48:00.773Z,-1.90
2018-03-01T17:50:29.510Z,-1.80
2018-03-01T17:52:58.002Z,-1.80
2018-03-01T17:55:27.796Z,-1.70
2018-03-01T17:57:57.211Z,-1.60
2018-03-01T18:00:25.896Z,-1.60
2018-03-01T18:02:58.000Z,-1.60
2018-03-01T18:05:27.001Z,-1.60
2018-03-01T18:07:56.033Z,-1.60
2018-03-01T18:10:26.444Z,-1.60
2018-03-01T18:12:55.391Z,-1.70
2018-03-01T18:15:25.486Z,-1.60
2018-03-01T18:17:54.171Z,-1.50
2018-03-01T18:20:23.114Z,-1.60
2018-03-01T18:22:52.048Z,-1.60
2018-03-01T18:25:23.928Z,-1.70
2018-03-01T18:27:59.052Z,-1.60
2018-03-01T18:30:27.547Z,-1.60
2018-03-01T18:32:56.590Z,-1.50
2018-03-01T18:35:26.452Z,-1.50
2018-03-01T18:37:55.541Z,-1.40
2018-03-01T18:40:28.738Z,-1.40
2018-03-01T18:43:01.038Z,-1.30
2018-03-01T18:45:31.628Z,-1.20
2018-03-01T18:47:59.898Z,-1.30
2018-03-01T18:50:29.001Z,-1.20
2018-03-01T18:52:57.544Z,-1.40
2018-03-01T18:55:29.535Z,-1.40
2018-03-01T18:57:57.983Z,-1.50
2018-03-01T19:00:27.653Z,-1.60
2018-03-01T19:02:56.162Z,-1.60
2018-03-01T19:05:26.386Z,-1.70
2018-03-01T19:07:55.335Z,-1.70
2018-03-01T19:10:24.816Z,-1.80
2018-03-01T19:12:54.162Z,-1.70
2018-03-01T19:15:26.056Z,-1.80
2018-03-01T19:17:56.107Z,-2.00
2018-03-01T19:20:24.879Z,-2.00
2018-03-01T19:22:56.244Z,-2.10
2018-03-01T19:25:34.268Z,-2.10
2018-03-01T19:28:04.294Z,-2.10
2018-03-01T19:30:37.684Z,-2.10
2018-03-01T19:33:09.512Z,-2.10
2018-03-01T19:35:41.112Z,-2.10
2018-03-01T19:38:16.019Z,-2.10
2018-03-01T19:40:53.472Z,-2.10
2018-03-01T19:46:00.824Z,-2.10
2018-03-01T19:48:33.200Z,-2.10
2018-03-01T19:51:01.667Z,-2.10
2018-03-01T19:53:31.312Z,-2.10
2018-03-01T19:56:04.550Z,-2.10
2018-03-01T20:03:44.376Z,-2.20
2018-03-01T20:06:17.314Z,-2.20
2018-03-01T20:14:50.671Z,-2.30
2018-03-01T20:17:24.079Z,-2.20
2018-03-01T20:20:09.147Z,-2.20
2018-03-01T21:30:00.408Z,-2.90
2018-03-01T21:32:33.722Z,-3.00
2018-03-01T21:35:04.517Z,-3.00
2018-03-01T21:37:33.038Z,-3.00
2018-03-01T21:40:03.407Z,-3.00
2018-03-01T21:45:11.095Z,-3.00
2018-03-01T21:47:39.313Z,-3.00
2018-03-01T21:50:08.018Z,-3.30
2018-03-01T21:52:36.682Z,-3.50
2018-03-01T21:58:08.357Z,-3.80
2018-03-01T22:00:40.764Z,-3.80
2018-03-01T22:03:31.196Z,-3.80
2018-03-01T22:06:00.752Z,-3.60
2018-03-01T22:08:33.964Z,-3.40
2018-03-01T22:11:02.479Z,-3.20
2018-03-01T22:13:31.399Z,-3.10
2018-03-01T22:15:59.662Z,-2.90
2018-03-01T22:18:27.835Z,-2.70
2018-03-01T22:20:57.480Z,-2.60
2018-03-01T22:23:25.658Z,-2.50
2018-03-01T22:25:53.921Z,-2.40
2018-03-01T22:28:22.703Z,-2.40
2018-03-01T22:30:51.254Z,-2.40
2018-03-01T22:33:20.149Z,-2.40
2018-03-01T22:35:52.240Z,-2.50
2018-03-01T22:38:20.463Z,-2.60
2018-03-01T22:41:02.370Z,-2.70
2018-03-01T22:43:31.478Z,-2.70
2018-03-01T22:45:59.662Z,-2.80
2018-03-01T22:48:29.890Z,-2.90
2018-03-01T22:50:59.073Z,-2.90
2018-03-01T22:53:28.931Z,-3.00
2018-03-01T22:55:57.948Z,-3.10
2018-03-01T22:58:26.142Z,-3.10
2018-03-01T23:00:54.326Z,-3.20
2018-03-01T23:03:22.861Z,-3.20
2018-03-01T23:05:51.426Z,-3.20
2018-03-01T23:08:20.628Z,-3.30
2018-03-01T23:10:50.789Z,-3.60
2018-03-01T23:13:20.102Z,-4.00
2018-03-01T23:15:53.561Z,-4.10
2018-03-01T23:18:21.785Z,-4.20
2018-03-01T23:20:57.457Z,-4.20
2018-03-01T23:23:25.629Z,-4.20
2018-03-01T23:25:53.797Z,-4.20
2018-03-01T23:28:22.002Z,-4.20
2018-03-01T23:30:51.075Z,-4.20
2018-03-01T23:33:23.161Z,-4.30
2018-03-01T23:35:55.843Z,-4.40
2018-03-01T23:38:24.959Z,-4.30
2018-03-01T23:40:53.686Z,-4.30
2018-03-01T23:43:22.358Z,-4.20
2018-03-01T23:45:50.582Z,-4.20
2018-03-01T23:48:22.711Z,-4.20
2018-03-01T23:50:52.204Z,-4.10
2018-03-01T23:53:21.207Z,-4.00
2018-03-01T23:55:50.424Z,-4.10
2018-03-01T23:58:20.736Z,-4.30
